createdAt,value
2023-04-16T00:01:16.940Z,9.30
2023-04-16T00:03:46.324Z,9.30
2023-04-16T00:06:14.575Z,9.20
2023-04-16T00:08:43.537Z,9.20
2023-04-16T00:11:11.642Z,9.20
2023-04-16T00:13:39.486Z,9.20
2023-04-16T00:16:08.197Z,9.20
2023-04-16T00:18:36.046Z,9.20
2023-04-16T00:21:05.436Z,9.20
2023-04-16T00:23:33.295Z,9.20
2023-04-16T00:26:01.090Z,9.20
2023-04-16T00:28:28.951Z,9.20
2023-04-16T00:30:57.320Z,9.20
2023-04-16T00:33:25.314Z,9.20
2023-04-16T00:35:53.252Z,9.20
2023-04-16T00:38:22.454Z,9.20
2023-04-16T00:40:50.230Z,9.10
2023-04-16T00:43:23.190Z,9.10
2023-04-16T00:45:51.664Z,9.10
2023-04-16T00:48:20.031Z,9.10
2023-04-16T00:50:47.955Z,9.10
2023-04-16T00:53:16.096Z,9.10
2023-04-16T00:55:45.775Z,9.10
2023-04-16T00:58:13.911Z,9.10
2023-04-16T01:00:41.743Z,9.00
2023-04-16T01:03:10.574Z,9.00
2023-04-16T01:05:38.572Z,9.00
2023-04-16T01:08:07.082Z,9.10
2023-04-16T01:10:34.973Z,9.00
2023-04-16T01:13:04.205Z,9.10
2023-04-16T01:15:32.043Z,9.00
2023-04-16T01:17:59.890Z,9.00
2023-04-16T01:20:27.826Z,9.00
2023-04-16T01:22:57.038Z,9.10
2023-04-16T01:25:25.326Z,9.10
2023-04-16T01:27:54.859Z,9.10
2023-04-16T01:30:22.747Z,9.10
2023-04-16T01:32:50.673Z,9.10
2023-04-16T01:35:19.125Z,9.10
2023-04-16T01:37:47.349Z,9.10
2023-04-16T01:40:16.558Z,9.10
2023-04-16T01:42:44.526Z,9.00
2023-04-16T01:45:12.764Z,9.00
2023-04-16T01:47:41.272Z,9.00
2023-04-16T01:50:10.132Z,9.10
2023-04-16T01:52:38.101Z,9.00
2023-04-16T01:55:06.560Z,9.00
2023-04-16T01:57:35.708Z,9.00
2023-04-16T02:00:03.746Z,9.10
2023-04-16T02:02:31.908Z,9.00
2023-04-16T02:04:59.883Z,9.00
2023-04-16T02:07:27.764Z,9.10
2023-04-16T02:09:55.847Z,9.00
2023-04-16T02:12:23.615Z,9.00
2023-04-16T02:14:52.902Z,9.00
2023-04-16T02:17:20.862Z,9.00
2023-04-16T02:19:48.929Z,9.00
2023-04-16T02:22:16.809Z,9.00
2023-04-16T02:24:44.631Z,9.00
2023-04-16T02:27:12.492Z,9.00
2023-04-16T02:29:40.631Z,9.00
2023-04-16T02:32:09.937Z,9.00
2023-04-16T02:34:40.111Z,9.00
2023-04-16T02:37:08.107Z,9.00
2023-04-16T02:39:36.389Z,9.00
2023-04-16T02:42:04.353Z,9.00
2023-04-16T02:44:32.694Z,8.90
2023-04-16T02:47:00.536Z,8.90
2023-04-16T02:49:29.764Z,8.90
2023-04-16T02:51:57.652Z,8.90
2023-04-16T02:54:25.560Z,8.90
2023-04-16T02:56:53.387Z,8.90
2023-04-16T02:59:21.226Z,8.90
2023-04-16T03:01:49.220Z,8.90
2023-04-16T03:04:17.187Z,8.90
2023-04-16T03:06:46.513Z,8.90
2023-04-16T03:09:14.913Z,8.80
2023-04-16T03:11:42.786Z,8.80
2023-04-16T03:14:10.611Z,8.90
2023-04-16T03:16:38.529Z,8.80
2023-04-16T03:19:06.436Z,8.90
2023-04-16T03:21:34.291Z,8.80
2023-04-16T03:24:03.568Z,8.90
2023-04-16T03:26:31.667Z,8.90
2023-04-16T03:28:59.532Z,8.80
2023-04-16T03:31:27.449Z,8.80
2023-04-16T03:33:55.314Z,8.80
2023-04-16T03:36:23.812Z,8.80
2023-04-16T03:38:51.691Z,8.80
2023-04-16T03:41:20.919Z,8.80
2023-04-16T03:43:48.749Z,8.80
2023-04-16T03:46:16.630Z,8.80
2023-04-16T03:48:44.560Z,8.80
2023-04-16T03:51:12.426Z,8.80
2023-04-16T03:53:40.304Z,8.80
2023-04-16T03:56:08.327Z,8.80
2023-04-16T03:58:37.526Z,8.80
2023-04-16T04:01:05.408Z,8.80
2023-04-16T04:03:33.497Z,8.80
2023-04-16T04:06:01.599Z,8.80
2023-04-16T04:08:29.558Z,8.80
2023-04-16T04:10:57.421Z,8.80
2023-04-16T04:13:25.331Z,8.80
2023-04-16T04:15:54.756Z,8.80
2023-04-16T04:18:22.663Z,8.80
2023-04-16T04:20:50.579Z,8.80
2023-04-16T04:23:18.426Z,8.80
2023-04-16T04:25:46.276Z,8.80
2023-04-16T04:28:14.171Z,8.80
2023-04-16T04:30:42.001Z,8.80
2023-04-16T04:33:11.286Z,8.80
2023-04-16T04:35:39.187Z,8.80
2023-04-16T04:38:07.245Z,8.80
2023-04-16T04:40:35.074Z,8.80
2023-04-16T04:43:02.919Z,8.90
2023-04-16T04:45:31.926Z,8.80
2023-04-16T04:48:00.328Z,8.80
2023-04-16T04:58:05.910Z,8.90
2023-04-16T05:00:33.805Z,8.90
2023-04-16T05:03:03.838Z,8.90
2023-04-16T05:05:31.773Z,8.90
2023-04-16T05:07:59.661Z,8.90
2023-04-16T05:10:28.090Z,8.90
2023-04-16T05:12:55.976Z,8.90
2023-04-16T05:15:25.288Z,9.00
2023-04-16T05:17:53.236Z,9.00
2023-04-16T05:20:21.562Z,9.00
2023-04-16T05:22:49.395Z,9.00
2023-04-16T05:25:17.397Z,9.00
2023-04-16T05:27:45.334Z,9.00
2023-04-16T05:30:13.770Z,9.00
2023-04-16T05:32:42.927Z,9.00
2023-04-16T05:35:11.240Z,9.00
2023-04-16T05:37:39.056Z,9.10
2023-04-16T05:40:08.533Z,9.00
2023-04-16T05:42:36.354Z,9.10
2023-04-16T05:45:05.290Z,9.10
2023-04-16T05:47:33.176Z,9.10
2023-04-16T05:50:02.367Z,9.10
2023-04-16T05:52:30.202Z,9.10
2023-04-16T05:55:01.217Z,9.20
2023-04-16T05:57:29.226Z,9.20
2023-04-16T06:00:00.328Z,9.20
2023-04-16T06:02:28.290Z,9.20
2023-04-16T06:04:56.218Z,9.20
2023-04-16T06:07:25.490Z,9.20
2023-04-16T06:09:53.342Z,9.20
2023-04-16T06:12:21.209Z,9.20
2023-04-16T06:14:49.061Z,9.30
2023-04-16T06:17:16.980Z,9.30
2023-04-16T06:19:44.823Z,9.30
2023-04-16T06:22:12.777Z,9.30
2023-04-16T06:24:42.370Z,9.30
2023-04-16T06:27:10.498Z,9.30
2023-04-16T06:29:41.481Z,9.30
2023-04-16T06:32:09.995Z,9.40
2023-04-16T06:34:39.123Z,9.40
2023-04-16T06:37:09.807Z,9.40
2023-04-16T06:39:38.275Z,9.40
2023-04-16T06:42:07.495Z,9.40
2023-04-16T06:44:36.239Z,9.40
2023-04-16T06:47:04.321Z,9.40
2023-04-16T06:49:32.187Z,9.40
2023-04-16T06:52:00.182Z,9.40
2023-04-16T06:54:28.021Z,9.40
2023-04-16T06:56:55.925Z,9.40
2023-04-16T06:59:25.181Z,9.40
2023-04-16T07:01:53.527Z,9.40
2023-04-16T07:04:21.660Z,9.40
2023-04-16T07:06:49.574Z,9.40
2023-04-16T07:09:17.783Z,9.40
2023-04-16T07:11:45.927Z,9.40
2023-04-16T07:14:13.753Z,9.40
2023-04-16T07:16:43.032Z,9.50
2023-04-16T07:19:11.373Z,9.50
2023-04-16T07:21:40.057Z,9.60
2023-04-16T07:24:08.194Z,9.60
2023-04-16T07:26:36.034Z,9.60
2023-04-16T07:29:03.928Z,9.70
2023-04-16T07:31:31.973Z,9.70
2023-04-16T07:34:01.196Z,9.80
2023-04-16T07:36:29.029Z,9.80
2023-04-16T07:38:57.487Z,9.80
2023-04-16T07:41:25.509Z,9.80
2023-04-16T07:43:53.337Z,9.80
2023-04-16T07:46:21.879Z,9.80
2023-04-16T07:48:49.831Z,9.80
2023-04-16T07:51:19.557Z,9.70
2023-04-16T07:53:47.405Z,9.80
2023-04-16T07:56:15.321Z,9.80
2023-04-16T07:58:43.128Z,9.80
2023-04-16T08:01:11.044Z,9.80
2023-04-16T08:03:39.131Z,9.80
2023-04-16T08:06:07.320Z,9.80
2023-04-16T08:08:36.507Z,9.80
2023-04-16T08:11:04.456Z,9.80
2023-04-16T08:13:33.601Z,9.80
2023-04-16T08:16:01.912Z,9.80
2023-04-16T08:18:29.936Z,9.80
2023-04-16T08:20:57.874Z,9.80
2023-04-16T08:23:25.723Z,9.80
2023-04-16T08:25:55.514Z,9.90
2023-04-16T08:28:23.388Z,10.00
2023-04-16T08:30:51.677Z,10.10
2023-04-16T08:33:19.643Z,10.20
2023-04-16T08:35:47.452Z,10.20
2023-04-16T08:38:15.282Z,10.30
2023-04-16T08:40:43.765Z,10.30
2023-04-16T08:43:15.126Z,10.30
2023-04-16T08:45:43.592Z,10.40
2023-04-16T08:48:12.915Z,10.40
2023-04-16T08:50:42.285Z,10.40
2023-04-16T08:53:15.044Z,10.30
2023-04-16T08:55:50.378Z,10.30
2023-04-16T08:58:23.097Z,10.20
2023-04-16T09:00:51.262Z,10.10
2023-04-16T09:03:21.387Z,10.00
2023-04-16T09:05:51.505Z,9.90
2023-04-16T09:08:20.153Z,9.80
2023-04-16T09:10:48.856Z,9.70
2023-04-16T09:13:17.760Z,9.60
2023-04-16T09:15:47.309Z,9.60
2023-04-16T09:18:15.170Z,9.60
2023-04-16T09:20:43.045Z,9.60
2023-04-16T09:23:11.902Z,9.60
2023-04-16T09:25:40.060Z,9.60
2023-04-16T09:28:07.890Z,9.60
2023-04-16T09:30:37.073Z,9.50
2023-04-16T09:33:22.151Z,9.50
2023-04-16T09:35:51.855Z,9.50
2023-04-16T09:38:20.468Z,9.50
2023-04-16T09:40:48.493Z,9.60
2023-04-16T09:43:18.215Z,9.60
2023-04-16T09:45:50.756Z,9.60
2023-04-16T09:48:30.149Z,9.60
2023-04-16T09:50:58.293Z,9.60
2023-04-16T09:53:27.106Z,9.60
2023-04-16T09:55:57.848Z,9.60
2023-04-16T09:58:26.188Z,9.60
2023-04-16T10:00:57.754Z,9.60
2023-04-16T10:03:32.750Z,9.60
2023-04-16T10:06:02.427Z,9.60
2023-04-16T10:08:30.382Z,9.60
2023-04-16T10:10:58.770Z,9.60
2023-04-16T10:13:27.960Z,9.60
2023-04-16T10:15:57.833Z,9.60
2023-04-16T10:18:25.719Z,9.60
2023-04-16T10:20:54.938Z,9.60
2023-04-16T10:23:23.440Z,9.60
2023-04-16T10:25:51.728Z,9.60
2023-04-16T10:28:20.760Z,9.60
2023-04-16T10:30:53.499Z,9.60
2023-04-16T10:33:22.924Z,9.60
2023-04-16T10:36:01.185Z,9.70
2023-04-16T10:38:39.183Z,9.70
2023-04-16T10:41:08.611Z,9.70
2023-04-16T10:43:41.175Z,9.70
2023-04-16T10:46:26.816Z,9.80
2023-04-16T10:48:56.392Z,9.80
2023-04-16T10:51:29.970Z,9.80
2023-04-16T10:54:04.953Z,9.80
2023-04-16T10:56:34.319Z,9.80
2023-04-16T10:59:05.233Z,9.80
2023-04-16T11:01:34.131Z,9.90
2023-04-16T11:04:03.180Z,9.90
2023-04-16T11:06:31.897Z,9.90
2023-04-16T11:09:03.855Z,9.90
2023-04-16T11:11:39.490Z,9.90
2023-04-16T11:14:10.335Z,9.90
2023-04-16T11:16:42.183Z,9.90
2023-04-16T11:19:17.594Z,10.00
2023-04-16T11:21:46.180Z,10.00
2023-04-16T11:24:15.436Z,10.00
2023-04-16T11:26:43.280Z,10.00
2023-04-16T11:29:15.883Z,10.00
2023-04-16T11:31:43.955Z,10.10
2023-04-16T11:34:11.959Z,10.10
2023-04-16T11:36:44.907Z,10.10
2023-04-16T11:39:13.251Z,10.10
2023-04-16T11:41:45.866Z,10.20
2023-04-16T11:44:21.336Z,10.20
2023-04-16T11:46:49.646Z,10.20
2023-04-16T11:49:18.519Z,10.20
2023-04-16T11:51:48.053Z,10.20
2023-04-16T11:54:22.599Z,10.30
2023-04-16T11:56:53.204Z,10.30
2023-04-16T11:59:23.050Z,10.40
2023-04-16T12:01:53.469Z,10.40
2023-04-16T12:04:23.038Z,10.50
2023-04-16T12:07:10.966Z,10.50
2023-04-16T12:09:41.162Z,10.50
2023-04-16T12:12:30.561Z,10.60
2023-04-16T12:15:00.139Z,10.60
2023-04-16T12:17:28.188Z,10.60
2023-04-16T12:19:58.584Z,10.70
2023-04-16T12:22:31.033Z,10.70
2023-04-16T12:25:04.409Z,10.70
2023-04-16T12:27:50.674Z,10.80
2023-04-16T12:30:22.446Z,10.90
2023-04-16T12:32:52.042Z,10.90
2023-04-16T12:35:32.111Z,11.10
2023-04-16T12:38:00.059Z,11.20
2023-04-16T12:40:28.205Z,11.30
2023-04-16T12:42:57.511Z,11.50
2023-04-16T12:45:26.190Z,11.50
2023-04-16T12:47:54.177Z,11.60
2023-04-16T12:50:22.144Z,11.50
2023-04-16T12:52:50.258Z,11.50
2023-04-16T12:55:18.206Z,11.50
2023-04-16T12:57:48.731Z,11.50
2023-04-16T13:00:18.539Z,11.40
2023-04-16T13:02:46.879Z,11.40
2023-04-16T13:05:16.543Z,11.40
2023-04-16T13:07:44.526Z,11.40
2023-04-16T13:10:13.365Z,11.50
2023-04-16T13:12:41.373Z,11.50
2023-04-16T13:15:10.717Z,11.50
2023-04-16T13:17:39.971Z,11.60
2023-04-16T13:20:08.953Z,11.70
2023-04-16T13:22:36.987Z,11.70
2023-04-16T13:25:05.316Z,11.70
2023-04-16T13:27:33.153Z,11.70
2023-04-16T13:30:00.995Z,11.60
2023-04-16T13:32:29.029Z,11.70
2023-04-16T13:34:59.876Z,11.60
2023-04-16T13:37:27.675Z,11.50
2023-04-16T13:39:56.421Z,11.50
2023-04-16T13:42:24.476Z,11.40
2023-04-16T13:44:54.902Z,11.30
2023-04-16T13:47:23.096Z,11.30
2023-04-16T13:49:51.053Z,11.30
2023-04-16T13:52:20.374Z,11.30
2023-04-16T13:54:48.345Z,11.30
2023-04-16T13:57:16.321Z,11.20
2023-04-16T13:59:44.481Z,11.30
2023-04-16T14:02:12.509Z,11.30
2023-04-16T14:04:40.415Z,11.30
2023-04-16T14:07:08.295Z,11.30
2023-04-16T14:09:37.506Z,11.30
2023-04-16T14:12:06.188Z,11.30
2023-04-16T14:14:34.034Z,11.30
2023-04-16T14:17:03.306Z,11.40
2023-04-16T14:19:31.644Z,11.30
2023-04-16T14:21:59.491Z,11.30
2023-04-16T14:24:27.321Z,11.30
2023-04-16T14:26:56.571Z,11.30
2023-04-16T14:29:24.452Z,11.30
2023-04-16T14:31:52.503Z,11.30
2023-04-16T14:34:20.374Z,11.30
2023-04-16T14:36:49.141Z,11.20
2023-04-16T14:39:18.489Z,11.20
2023-04-16T14:41:46.411Z,11.20
2023-04-16T14:44:15.711Z,11.20
2023-04-16T14:46:43.734Z,11.20
2023-04-16T14:49:12.391Z,11.20
2023-04-16T14:51:40.653Z,11.20
2023-04-16T14:54:08.648Z,11.20
2023-04-16T14:56:36.559Z,11.20
2023-04-16T14:59:04.519Z,11.30
2023-04-16T15:01:34.659Z,11.30
2023-04-16T15:04:03.081Z,11.30
2023-04-16T15:06:32.277Z,11.30
2023-04-16T15:09:00.316Z,11.40
2023-04-16T15:11:28.506Z,11.40
2023-04-16T15:13:56.438Z,11.50
2023-04-16T15:16:24.864Z,11.50
2023-04-16T15:18:54.196Z,11.60
2023-04-16T15:21:22.567Z,11.60
2023-04-16T15:23:50.434Z,11.60
2023-04-16T15:26:18.290Z,11.60
2023-04-16T15:28:46.180Z,11.60
2023-04-16T15:31:14.086Z,11.70
2023-04-16T15:33:41.902Z,11.60
2023-04-16T15:36:11.294Z,11.60
2023-04-16T15:38:39.109Z,11.70
2023-04-16T15:41:07.137Z,11.70
2023-04-16T15:43:34.917Z,11.70
2023-04-16T15:46:02.778Z,11.80
2023-04-16T15:48:30.717Z,11.80
2023-04-16T15:50:58.537Z,11.80
2023-04-16T15:53:28.067Z,11.80
2023-04-16T15:55:56.301Z,11.80
2023-04-16T15:58:24.187Z,11.80
2023-04-16T16:00:52.244Z,11.80
2023-04-16T16:03:20.580Z,11.90
2023-04-16T16:05:49.220Z,11.90
2023-04-16T16:08:17.444Z,11.90
2023-04-16T16:10:46.675Z,11.90
2023-04-16T16:13:18.024Z,12.00
2023-04-16T16:15:46.299Z,12.00
2023-04-16T16:18:14.261Z,12.00
2023-04-16T16:20:42.065Z,12.00
2023-04-16T16:23:09.854Z,12.00
2023-04-16T16:25:37.871Z,12.00
2023-04-16T16:28:07.087Z,12.00
2023-04-16T16:30:34.956Z,12.00
2023-04-16T16:33:02.929Z,12.00
2023-04-16T16:35:30.900Z,12.10
2023-04-16T16:37:59.418Z,12.10
2023-04-16T16:40:27.310Z,12.10
2023-04-16T16:42:55.272Z,12.20
2023-04-16T16:45:26.019Z,12.20
2023-04-16T16:47:54.824Z,12.20
2023-04-16T16:50:22.756Z,12.30
2023-04-16T16:52:50.715Z,12.40
2023-04-16T16:55:18.993Z,12.40
2023-04-16T16:57:46.948Z,12.50
2023-04-16T17:00:16.221Z,12.60
2023-04-16T17:02:45.612Z,12.50
2023-04-16T17:05:13.770Z,12.40
2023-04-16T17:07:41.610Z,12.40
2023-04-16T17:10:11.162Z,12.30
2023-04-16T17:12:39.061Z,12.30
2023-04-16T17:15:07.990Z,12.10
2023-04-16T17:17:36.410Z,12.10
2023-04-16T17:20:09.207Z,12.10
2023-04-16T17:22:37.370Z,12.00
2023-04-16T17:25:07.592Z,12.00
2023-04-16T17:27:35.789Z,12.00
2023-04-16T17:30:05.376Z,12.00
2023-04-16T17:32:33.874Z,12.00
2023-04-16T17:35:04.000Z,12.00
2023-04-16T17:37:33.945Z,12.00
2023-04-16T17:40:01.876Z,12.00
2023-04-16T17:42:29.729Z,12.00
2023-04-16T17:44:57.629Z,12.00
2023-04-16T17:47:25.539Z,12.00
2023-04-16T17:49:54.793Z,12.00
2023-04-16T17:52:22.730Z,12.00
2023-04-16T17:54:53.219Z,12.00
2023-04-16T17:57:21.086Z,12.00
2023-04-16T17:59:48.969Z,12.00
2023-04-16T18:02:16.850Z,12.00
2023-04-16T18:04:45.102Z,11.90
2023-04-16T18:07:13.509Z,11.90
2023-04-16T18:09:41.511Z,11.80
2023-04-16T18:12:10.767Z,11.80
2023-04-16T18:14:40.626Z,11.80
2023-04-16T18:17:08.608Z,11.80
2023-04-16T18:19:36.623Z,11.70
2023-04-16T18:22:04.493Z,11.70
2023-04-16T18:24:33.304Z,11.70
2023-04-16T18:27:01.645Z,11.70
2023-04-16T18:29:33.933Z,11.60
2023-04-16T18:32:04.285Z,11.60
2023-04-16T18:34:32.814Z,11.60
2023-04-16T18:37:00.693Z,11.60
2023-04-16T18:39:28.593Z,11.60
2023-04-16T18:41:56.569Z,11.50
2023-04-16T18:44:24.431Z,11.50
2023-04-16T18:46:53.666Z,11.50
2023-04-16T18:49:21.727Z,11.50
2023-04-16T18:51:49.573Z,11.50
2023-04-16T18:54:17.464Z,11.50
2023-04-16T18:56:45.385Z,11.50
2023-04-16T18:59:13.490Z,11.40
2023-04-16T19:01:41.499Z,11.50
2023-04-16T19:04:10.780Z,11.40
2023-04-16T19:06:38.759Z,11.40
2023-04-16T19:09:06.784Z,11.40
2023-04-16T19:11:35.365Z,11.40
2023-04-16T19:14:05.246Z,11.40
2023-04-16T19:16:33.352Z,11.40
2023-04-16T19:19:01.340Z,11.40
2023-04-16T19:21:30.677Z,11.30
2023-04-16T19:23:59.542Z,11.20
2023-04-16T19:26:28.001Z,11.20
2023-04-16T19:28:55.824Z,11.10
2023-04-16T19:31:26.056Z,11.10
2023-04-16T19:33:53.948Z,11.00
2023-04-16T19:36:21.831Z,11.00
2023-04-16T19:38:51.308Z,10.90
2023-04-16T19:41:19.241Z,10.90
2023-04-16T19:43:47.161Z,10.90
2023-04-16T19:46:15.544Z,10.80
2023-04-16T19:48:43.505Z,10.80
2023-04-16T19:51:11.398Z,10.70
2023-04-16T19:53:39.240Z,10.70
2023-04-16T19:56:08.435Z,10.70
2023-04-16T19:58:36.347Z,10.70
2023-04-16T20:01:09.686Z,10.60
2023-04-16T20:03:37.703Z,10.60
2023-04-16T20:06:06.801Z,10.60
2023-04-16T20:08:35.064Z,10.60
2023-04-16T20:11:02.905Z,10.60
2023-04-16T20:13:32.189Z,10.60
2023-04-16T20:16:01.142Z,10.50
2023-04-16T20:18:29.082Z,10.60
2023-04-16T20:20:57.031Z,10.50
2023-04-16T20:23:25.090Z,10.50
2023-04-16T20:25:52.916Z,10.50
2023-04-16T20:28:21.564Z,10.50
2023-04-16T20:30:51.097Z,10.40
2023-04-16T20:33:19.106Z,10.50
2023-04-16T20:35:47.303Z,10.50
2023-04-16T20:38:15.100Z,10.50
2023-04-16T20:40:44.641Z,10.50
2023-04-16T20:43:14.022Z,10.50
2023-04-16T20:45:45.885Z,10.50
2023-04-16T20:48:15.414Z,10.50
2023-04-16T20:50:43.312Z,10.40
2023-04-16T20:53:11.153Z,10.40
2023-04-16T20:55:39.119Z,10.40
2023-04-16T20:58:07.032Z,10.40
2023-04-16T21:00:34.931Z,10.40
2023-04-16T21:03:02.866Z,10.40
2023-04-16T21:05:33.861Z,10.30
2023-04-16T21:08:01.673Z,10.30
2023-04-16T21:10:29.505Z,10.30
2023-04-16T21:12:57.418Z,10.30
2023-04-16T21:15:25.330Z,10.30
2023-04-16T21:17:53.171Z,10.30
2023-04-16T21:20:21.019Z,10.30
2023-04-16T21:22:51.105Z,10.20
2023-04-16T21:25:18.933Z,10.20
2023-04-16T21:27:46.916Z,10.20
2023-04-16T21:30:15.648Z,10.20
2023-04-16T21:32:43.755Z,10.20
2023-04-16T21:35:12.031Z,10.20
2023-04-16T21:37:39.920Z,10.20
2023-04-16T21:40:09.946Z,10.20
2023-04-16T21:42:39.671Z,10.20
2023-04-16T21:45:08.871Z,10.20
2023-04-16T21:47:37.247Z,10.10
2023-04-16T21:50:05.708Z,10.20
2023-04-16T21:52:33.773Z,10.10
2023-04-16T21:55:01.691Z,10.10
2023-04-16T21:57:30.934Z,10.10
2023-04-16T21:59:58.745Z,10.10
2023-04-16T22:02:27.417Z,10.10
2023-04-16T22:04:55.677Z,10.10
2023-04-16T22:07:23.533Z,10.10
2023-04-16T22:09:53.217Z,10.10
2023-04-16T22:12:21.028Z,10.00
2023-04-16T22:17:23.819Z,10.00
2023-04-16T22:19:53.336Z,10.00
2023-04-16T22:22:21.887Z,10.00
2023-04-16T22:24:49.933Z,9.90
2023-04-16T22:27:17.822Z,9.90
2023-04-16T22:29:45.839Z,9.90
2023-04-16T22:32:15.425Z,9.90
2023-04-16T22:34:43.305Z,9.90
2023-04-16T22:37:11.226Z,9.90
2023-04-16T22:39:39.147Z,9.90
2023-04-16T22:42:07.124Z,9.90
2023-04-16T22:44:34.937Z,9.90
2023-04-16T22:47:02.789Z,9.90
2023-04-16T22:49:33.177Z,9.90
2023-04-16T22:52:01.402Z,9.90
2023-04-16T22:54:29.738Z,9.90
2023-04-16T22:56:57.644Z,9.90
2023-04-16T22:59:25.799Z,9.90
2023-04-16T23:01:53.774Z,9.80
2023-04-16T23:04:21.712Z,9.80
2023-04-16T23:06:51.277Z,9.80
2023-04-16T23:09:20.491Z,9.80
2023-04-16T23:11:48.463Z,9.80
2023-04-16T23:14:16.961Z,9.80
2023-04-16T23:16:44.913Z,9.80
2023-04-16T23:19:14.895Z,9.80
2023-04-16T23:21:42.963Z,9.80
2023-04-16T23:24:12.545Z,9.80
2023-04-16T23:26:40.446Z,9.80
2023-04-16T23:29:08.343Z,9.80
2023-04-16T23:31:36.409Z,9.70
2023-04-16T23:34:04.524Z,9.70
2023-04-16T23:36:32.397Z,9.70
2023-04-16T23:39:00.289Z,9.70
2023-04-16T23:41:29.535Z,9.80
2023-04-16T23:43:57.588Z,9.70
2023-04-16T23:46:26.188Z,9.70
2023-04-16T23:48:55.224Z,9.70
2023-04-16T23:51:23.359Z,9.80
2023-04-16T23:53:51.177Z,9.70
2023-04-16T23:56:19.043Z,9.70
2023-04-16T23:58:48.190Z,9.70
